Αναφορές METAR Αεροδρομίων

 

LGTS - THESSALONIKI - GREECE
Ενημερώθηκε: 07/04/2020 20:20
Αίθριος
Αίθριος
 Ανεμος από varies
Ανεμος: varies 6 km/h
Θερμοκρασία: 13°C
Σημείο Δρόσου: 2°C
Υγρασία: 47%
Βαρόμετρο: 1026 hPa
Περίληψη: Αίθριος
Visibility: greater than 10 km
2020/04/07 17:20 LGTS 071720Z VRB03KT CAVOK 13/02 Q1026 NOSIG
LGLR - LARTISA - GREECE
Ενημερώθηκε: 07/04/2020 19:50
Αραιές Νεφώσεις
Αραιές Νεφώσεις
 Ανεμος από calm
Ανεμος: Απνοια
Θερμοκρασία: 13°C
Σημείο Δρόσου: 2°C
Υγρασία: 47%
Βαρόμετρο: 1026 hPa
Clouds: Αραιές Νεφώσεις
Visibility: 10 km
Cloud details: Αραιές Νεφώσεις 2438 m
2020/04/07 16:50 LGLR 071650Z 00000KT 9999 FEW080 13/02 Q1026 RMK FEW180 BLU
 
LGKZ - KOZANI - GREECE
Ενημερώθηκε: 07/04/2020 20:20

 Ανεμος από ΒΑ
Ανεμος: ΒΑ 7 km/h
Θερμοκρασία: 8°C
Wind Chill: 7°C
Σημείο Δρόσου: -7°C
Υγρασία: 34%
Βαρόμετρο: 1026 hPa
2020/04/07 17:20 LGKZ 071720Z AUTO 04004KT //// // ////// 08/M07 Q1026 RE//
LGKV - KAVALA - GREECE
Ενημερώθηκε: 07/04/2020 20:20
Αίθριος
Αίθριος
 Ανεμος από ΑΒΑ
Ανεμος: ΑΒΑ 28 km/h
Θερμοκρασία: 14°C
Σημείο Δρόσου: -9°C
Υγρασία: 20%
Βαρόμετρο: 1026 hPa
Περίληψη: Αίθριος
Visibility: greater than 10 km
2020/04/07 17:20 LGKV 071720Z 06015KT CAVOK 14/M09 Q1026
 
LGIO - IOANNINA - GREECE
Ενημερώθηκε: 07/04/2020 20:20

 Ανεμος από Α
Ανεμος: Α 13 km/h
Θερμοκρασία: 12°C
Σημείο Δρόσου: -5°C
Υγρασία: 30%
Βαρόμετρο: 1025 hPa
2020/04/07 17:20 LGIO 071720Z AUTO 08007KT 040V190 //// // ////// 12/M05 Q1025 RE//
LGBL - BOLOS - GREECE
Ενημερώθηκε: 07/04/2020 20:20
Αραιές Νεφώσεις
Αραιές Νεφώσεις
 Ανεμος από ΔΝΔ
Ανεμος: ΔΝΔ 6 km/h
Θερμοκρασία: 10°C
Σημείο Δρόσου: 3°C
Υγρασία: 62%
Βαρόμετρο: 1026 hPa
Clouds: Αραιές Νεφώσεις
Visibility: 10 km
Cloud details: Αραιές Νεφώσεις 914 m
2020/04/07 17:20 LGBL 071720Z 24003KT 9999 FEW030 10/03 Q1026
 
LGMT - MITILINI - GREECE
Ενημερώθηκε: 07/04/2020 20:20
Αραιές Νεφώσεις
Αραιές Νεφώσεις
 Ανεμος από Β
Ανεμος: Β 22 km/h, Ριπή: 41 km/h
Θερμοκρασία: 12°C
Σημείο Δρόσου: 3°C
Υγρασία: 54%
Βαρόμετρο: 1020 hPa
Clouds: Αραιές Νεφώσεις
Visibility: 10 km
Cloud details: Αραιές Νεφώσεις 762 m
2020/04/07 17:20 LGMT 071720Z 36012G22KT 9999 FEW025 12/03 Q1020
LGAV - ATHENS - GREECE
Ενημερώθηκε: 07/04/2020 20:50
Αραιές Νεφώσεις
Αραιές Νεφώσεις
 Ανεμος από ΒΒΑ
Ανεμος: ΒΒΑ 43 km/h, Ριπή: 61 km/h
Θερμοκρασία: 12°C
Σημείο Δρόσου: 0°C
Υγρασία: 44%
Βαρόμετρο: 1021 hPa
Clouds: Αραιές Νεφώσεις
Visibility: 10 km
Cloud details: Αραιές Νεφώσεις 914 m
2020/04/07 17:50 LGAV 071750Z 02023G33KT 9999 FEW030 12/00 Q1021 NOSIG
 
LGRP - RODOS - GREECE
Ενημερώθηκε: 07/04/2020 20:50
Αραιές Νεφώσεις
Αραιές Νεφώσεις
 Ανεμος από Δ
Ανεμος: Δ 11 km/h
Θερμοκρασία: 17°C
Σημείο Δρόσου: 13°C
Υγρασία: 77%
Βαρόμετρο: 1014 hPa
Clouds: Αραιές Νεφώσεις
Visibility: 10 km
Cloud details: Αραιές Νεφώσεις 549 m
2020/04/07 17:50 LGRP 071750Z 28006KT 9999 FEW018TCU 17/13 Q1014 NOSIG
LGIR - HRAKLIO/KRITI - GREECE
Ενημερώθηκε: 07/04/2020 20:50
Συννεφιά
Συννεφιά
 Ανεμος από ΒΒΔ
Ανεμος: ΒΒΔ 31 km/h
Θερμοκρασία: 12°C
Σημείο Δρόσου: 10°C
Υγρασία: 88%
Βαρόμετρο: 1018 hPa
Clouds: Συννεφιά
Visibility: 10 km
Cloud details: Αραιές Νεφώσεις 549 m
Σχεδόν νεφελώδης 762 m
Συννεφιά 2438 m
2020/04/07 17:50 LGIR 071750Z 33017KT 9999 FEW018 BKN025 OVC080 12/10 Q1018 NOSIG
 
LGMK - MIKONOS - GREECE
Ενημερώθηκε: 07/04/2020 11:50
NOT Current
Σχεδόν νεφελώδης
Σχεδόν νεφελώδης
 Ανεμος από ΒΒΔ
Ανεμος: ΒΒΔ 24 km/h, Ριπή: 43 km/h
Θερμοκρασία: 12°C
Σημείο Δρόσου: 6°C
Υγρασία: 67%
Βαρόμετρο: 1018 hPa
Clouds: Σχεδόν νεφελώδης
Visibility: 8 km
Cloud details: Μερικώς νεφελώδης 305 m
Σχεδόν νεφελώδης 762 m
2020/04/07 08:50 LGMK 070850Z 34013G23KT 8000 SCT010 BKN025 12/06 Q1018
LGKR - KERKIRA - GREECE
Ενημερώθηκε: 07/04/2020 20:50
Αίθριος
Αίθριος
 Ανεμος από Δ
Ανεμος: Δ 7 km/h
Θερμοκρασία: 16°C
Σημείο Δρόσου: 6°C
Υγρασία: 52%
Βαρόμετρο: 1023 hPa
Περίληψη: Αίθριος
Visibility: greater than 10 km
2020/04/07 17:50 LGKR 071750Z 28004KT CAVOK 16/06 Q1023 NOSIG